Terminal Aerodrome Forecast
Issued by NWS

Home | Current Version | Previous Version | Text Only | Print | Product List | Glossary On
Versions: 1 2 3 4 5 6 7 8 9 10 11 12 13 14 15 16 17 18 19 20 21
000
FTUS43 KIND 240200 AAA
TAFBMG
TAF AMD
KBMG 240225Z 2402/2424 36007KT P6SM OVC035
     FM240400 36005KT 4SM BR SCT007 BKN015
     FM241500 03007KT P6SM BKN040
      AMD LTD TO CLD VIS AND WIND TIL 241300=

USA.gov is the U.S. government's official web portal to all federal, state and local government web resources and services.